sensor_id;sensor_type;location;lat;lon;timestamp;pressure;altitude;pressure_sealevel;temperature;humidity
56414;BME280;42318;48.452;19.526;2024-03-22T00:01:55;98534.06;;;21.43;55.63
56414;BME280;42318;48.452;19.526;2024-03-22T00:04:55;98535.44;;;21.46;55.30
56414;BME280;42318;48.452;19.526;2024-03-22T00:07:56;98543.38;;;21.52;55.29
56414;BME280;42318;48.452;19.526;2024-03-22T00:10:57;98540.41;;;21.54;55.84
56414;BME280;42318;48.452;19.526;2024-03-22T00:13:58;98542.28;;;21.48;55.38
56414;BME280;42318;48.452;19.526;2024-03-22T00:16:58;98551.84;;;21.51;55.33
56414;BME280;42318;48.452;19.526;2024-03-22T00:20:00;98551.00;;;21.50;55.19
56414;BME280;42318;48.452;19.526;2024-03-22T00:23:00;98550.47;;;21.53;55.20
56414;BME280;42318;48.452;19.526;2024-03-22T00:26:01;98533.84;;;21.50;55.31
56414;BME280;42318;48.452;19.526;2024-03-22T00:29:02;98536.84;;;21.53;55.40
56414;BME280;42318;48.452;19.526;2024-03-22T00:32:04;98528.94;;;21.52;55.18
56414;BME280;42318;48.452;19.526;2024-03-22T00:35:05;98527.03;;;21.52;55.21
56414;BME280;42318;48.452;19.526;2024-03-22T00:38:05;98534.94;;;21.54;54.89
56414;BME280;42318;48.452;19.526;2024-03-22T00:41:06;98538.75;;;21.53;55.06
56414;BME280;42318;48.452;19.526;2024-03-22T00:44:07;98534.66;;;21.50;55.37
56414;BME280;42318;48.452;19.526;2024-03-22T00:47:07;98530.00;;;21.46;55.52
56414;BME280;42318;48.452;19.526;2024-03-22T00:50:08;98515.84;;;21.49;55.19
56414;BME280;42318;48.452;19.526;2024-03-22T00:53:09;98517.75;;;21.48;55.28
56414;BME280;42318;48.452;19.526;2024-03-22T00:56:10;98504.34;;;21.42;55.21
56414;BME280;42318;48.452;19.526;2024-03-22T00:59:11;98524.00;;;21.49;55.07
56414;BME280;42318;48.452;19.526;2024-03-22T01:02:11;98530.81;;;21.46;55.15
56414;BME280;42318;48.452;19.526;2024-03-22T01:05:12;98528.91;;;21.47;55.24
56414;BME280;42318;48.452;19.526;2024-03-22T01:08:13;98514.44;;;21.41;55.15
56414;BME280;42318;48.452;19.526;2024-03-22T01:11:13;98526.75;;;21.49;55.39
56414;BME280;42318;48.452;19.526;2024-03-22T01:14:14;98528.34;;;21.45;55.02
56414;BME280;42318;48.452;19.526;2024-03-22T01:17:14;98526.19;;;21.47;55.32
56414;BME280;42318;48.452;19.526;2024-03-22T01:20:15;98530.81;;;21.46;55.12
56414;BME280;42318;48.452;19.526;2024-03-22T01:23:16;98529.19;;;21.45;55.18
56414;BME280;42318;48.452;19.526;2024-03-22T01:26:16;98527.00;;;21.47;54.93
56414;BME280;42318;48.452;19.526;2024-03-22T01:29:17;98520.75;;;21.47;55.08
56414;BME280;42318;48.452;19.526;2024-03-22T01:32:18;98514.47;;;21.46;54.93
56414;BME280;42318;48.452;19.526;2024-03-22T01:35:18;98515.00;;;21.43;55.13
56414;BME280;42318;48.452;19.526;2024-03-22T01:38:19;98506.81;;;21.43;55.36
56414;BME280;42318;48.452;19.526;2024-03-22T01:41:19;98504.91;;;21.44;55.21
56414;BME280;42318;48.452;19.526;2024-03-22T01:44:27;98512.25;;;21.43;55.14
56414;BME280;42318;48.452;19.526;2024-03-22T01:47:28;98509.00;;;21.46;55.15
56414;BME280;42318;48.452;19.526;2024-03-22T01:50:28;98504.09;;;21.43;55.14
56414;BME280;42318;48.452;19.526;2024-03-22T01:53:29;98515.00;;;21.43;55.17
56414;BME280;42318;48.452;19.526;2024-03-22T01:56:30;98508.72;;;21.43;55.21
56414;BME280;42318;48.452;19.526;2024-03-22T01:59:30;98501.38;;;21.43;55.27
56414;BME280;42318;48.452;19.526;2024-03-22T02:02:32;98505.72;;;21.44;55.13
56414;BME280;42318;48.452;19.526;2024-03-22T02:05:33;98500.28;;;21.44;54.83
56414;BME280;42318;48.452;19.526;2024-03-22T02:08:34;98508.47;;;21.44;55.37
56414;BME280;42318;48.452;19.526;2024-03-22T02:11:36;98505.47;;;21.46;54.98
56414;BME280;42318;48.452;19.526;2024-03-22T02:14:38;98509.53;;;21.43;55.00
56414;BME280;42318;48.452;19.526;2024-03-22T02:17:38;98509.28;;;21.45;54.98
56414;BME280;42318;48.452;19.526;2024-03-22T02:20:39;98513.91;;;21.44;55.04
56414;BME280;42318;48.452;19.526;2024-03-22T02:23:40;98508.72;;;21.43;55.17
56414;BME280;42318;48.452;19.526;2024-03-22T02:26:41;98503.53;;;21.41;55.07
56414;BME280;42318;48.452;19.526;2024-03-22T02:29:41;98506.81;;;21.43;55.31
56414;BME280;42318;48.452;19.526;2024-03-22T02:32:42;98498.91;;;21.42;54.90
56414;BME280;42318;48.452;19.526;2024-03-22T02:35:43;98495.91;;;21.43;55.18
56414;BME280;42318;48.452;19.526;2024-03-22T02:38:43;98500.53;;;21.43;55.12
56414;BME280;42318;48.452;19.526;2024-03-22T02:41:44;98506.00;;;21.43;55.28
56414;BME280;42318;48.452;19.526;2024-03-22T02:44:45;98486.06;;;21.37;54.81
56414;BME280;42318;48.452;19.526;2024-03-22T02:47:45;98495.34;;;21.41;55.34
56414;BME280;42318;48.452;19.526;2024-03-22T02:50:46;98507.91;;;21.42;55.13
56414;BME280;42318;48.452;19.526;2024-03-22T02:53:46;98499.72;;;21.42;55.14
56414;BME280;42318;48.452;19.526;2024-03-22T02:56:47;98494.53;;;21.41;54.86
56414;BME280;42318;48.452;19.526;2024-03-22T02:59:47;98501.38;;;21.43;55.17
56414;BME280;42318;48.452;19.526;2024-03-22T03:02:49;98486.06;;;21.37;54.76
56414;BME280;42318;48.452;19.526;2024-03-22T03:05:49;98489.09;;;21.41;55.07
56414;BME280;42318;48.452;19.526;2024-03-22T03:08:50;98495.34;;;21.41;55.07
56414;BME280;42318;48.452;19.526;2024-03-22T03:11:50;98494.28;;;21.42;55.17
56414;BME280;42318;48.452;19.526;2024-03-22T03:14:51;98487.19;;;21.41;55.21
56414;BME280;42318;48.452;19.526;2024-03-22T03:17:52;98491.00;;;21.40;55.01
56414;BME280;42318;48.452;19.526;2024-03-22T03:20:52;98491.00;;;21.40;55.00
56414;BME280;42318;48.452;19.526;2024-03-22T03:23:53;98491.81;;;21.41;55.28
56414;BME280;42318;48.452;19.526;2024-03-22T03:26:54;98499.47;;;21.44;55.07
56414;BME280;42318;48.452;19.526;2024-03-22T03:29:54;98492.38;;;21.43;55.17
56414;BME280;42318;48.452;19.526;2024-03-22T03:32:55;98487.19;;;21.41;55.11
56414;BME280;42318;48.452;19.526;2024-03-22T03:35:55;98495.63;;;21.40;55.37
56414;BME280;42318;48.452;19.526;2024-03-22T03:38:56;98498.91;;;21.42;55.21
56414;BME280;42318;48.452;19.526;2024-03-22T03:41:57;98488.81;;;21.42;55.26
56414;BME280;42318;48.452;19.526;2024-03-22T03:44:57;98485.28;;;21.42;55.07
56414;BME280;42318;48.452;19.526;2024-03-22T03:47:58;98486.09;;;21.42;54.96
56414;BME280;42318;48.452;19.526;2024-03-22T03:50:59;98479.00;;;21.41;55.19
56414;BME280;42318;48.452;19.526;2024-03-22T03:54:03;98468.06;;;21.36;55.03
56414;BME280;42318;48.452;19.526;2024-03-22T03:57:04;98491.00;;;21.40;54.96
56414;BME280;42318;48.452;19.526;2024-03-22T04:00:05;98478.16;;;21.36;55.31
56414;BME280;42318;48.452;19.526;2024-03-22T04:03:06;98484.44;;;21.36;55.07
56414;BME280;42318;48.452;19.526;2024-03-22T04:06:07;98489.34;;;21.39;55.14
56414;BME280;42318;48.452;19.526;2024-03-22T04:09:08;98482.81;;;21.40;55.27
56414;BME280;42318;48.452;19.526;2024-03-22T04:12:09;98483.63;;;21.41;54.59
56414;BME280;42318;48.452;19.526;2024-03-22T04:15:09;98455.78;;;21.28;54.93
56414;BME280;42318;48.452;19.526;2024-03-22T04:18:10;98477.38;;;21.40;54.81
56414;BME280;42318;48.452;19.526;2024-03-22T04:21:11;98478.44;;;21.39;55.30
56414;BME280;42318;48.452;19.526;2024-03-22T04:24:11;98476.28;;;21.41;54.87
56414;BME280;42318;48.452;19.526;2024-03-22T04:27:12;98473.56;;;21.41;55.20
56414;BME280;42318;48.452;19.526;2024-03-22T04:30:13;98495.66;;;21.45;54.92
56414;BME280;42318;48.452;19.526;2024-03-22T04:33:14;98481.72;;;21.41;54.84
56414;BME280;42318;48.452;19.526;2024-03-22T04:36:15;98479.00;;;21.41;55.06
56414;BME280;42318;48.452;19.526;2024-03-22T04:39:16;98474.38;;;21.42;54.79
56414;BME280;42318;48.452;19.526;2024-03-22T04:42:17;98471.66;;;21.42;55.12
56414;BME280;42318;48.452;19.526;2024-03-22T04:45:17;98463.19;;;21.38;54.66
56414;BME280;42318;48.452;19.526;2024-03-22T04:48:22;98466.19;;;21.42;55.17
56414;BME280;42318;48.452;19.526;2024-03-22T04:51:23;98478.75;;;21.43;54.94
56414;BME280;42318;48.452;19.526;2024-03-22T04:54:23;98472.47;;;21.42;54.93
56414;BME280;42318;48.452;19.526;2024-03-22T04:57:24;98462.06;;;21.34;55.07
56414;BME280;42318;48.452;19.526;2024-03-22T05:00:25;98471.66;;;21.42;54.79
56414;BME280;42318;48.452;19.526;2024-03-22T05:03:26;98476.28;;;21.41;54.75
56414;BME280;42318;48.452;19.526;2024-03-22T05:06:26;98478.19;;;21.41;55.09
56414;BME280;42318;48.452;19.526;2024-03-22T05:09:27;98473.56;;;21.41;55.27
56414;BME280;42318;48.452;19.526;2024-03-22T05:12:27;98481.47;;;21.43;54.77
56414;BME280;42318;48.452;19.526;2024-03-22T05:15:28;98474.91;;;21.39;55.10
56414;BME280;42318;48.452;19.526;2024-03-22T05:18:28;98475.19;;;21.42;55.15
56414;BME280;42318;48.452;19.526;2024-03-22T05:21:29;98463.47;;;21.42;55.09
56414;BME280;42318;48.452;19.526;2024-03-22T05:24:30;98481.47;;;21.43;54.84
56414;BME280;42318;48.452;19.526;2024-03-22T05:27:31;98471.66;;;21.42;55.11
56414;BME280;42318;48.452;19.526;2024-03-22T05:30:32;98477.09;;;21.42;55.20
56414;BME280;42318;48.452;19.526;2024-03-22T05:33:33;98463.44;;;21.37;54.61
56414;BME280;42318;48.452;19.526;2024-03-22T05:36:34;98468.66;;;21.43;54.89
56414;BME280;42318;48.452;19.526;2024-03-22T05:39:34;98472.47;;;21.42;55.13
56414;BME280;42318;48.452;19.526;2024-03-22T05:42:35;98475.47;;;21.41;55.13
56414;BME280;42318;48.452;19.526;2024-03-22T05:45:36;98477.91;;;21.42;54.71
56414;BME280;42318;48.452;19.526;2024-03-22T05:48:36;98463.44;;;21.37;54.79
56414;BME280;42318;48.452;19.526;2024-03-22T05:51:37;98478.75;;;21.43;54.91
56414;BME280;42318;48.452;19.526;2024-03-22T05:54:38;98479.81;;;21.42;54.83
56414;BME280;42318;48.452;19.526;2024-03-22T05:57:39;98458.25;;;21.35;54.92
56414;BME280;42318;48.452;19.526;2024-03-22T06:00:39;98477.91;;;21.42;55.17
56414;BME280;42318;48.452;19.526;2024-03-22T06:03:40;98475.47;;;21.41;54.78
56414;BME280;42318;48.452;19.526;2024-03-22T06:06:40;98478.47;;;21.44;54.75
56414;BME280;42318;48.452;19.526;2024-03-22T06:09:41;98477.09;;;21.42;54.89
56414;BME280;42318;48.452;19.526;2024-03-22T06:12:49;98454.97;;;21.33;55.12
56414;BME280;42318;48.452;19.526;2024-03-22T06:15:49;98464.81;;;21.34;54.98
56414;BME280;42318;48.452;19.526;2024-03-22T06:18:50;98486.63;;;21.39;55.22
56414;BME280;42318;48.452;19.526;2024-03-22T06:21:51;98474.63;;;21.40;55.16
56414;BME280;42318;48.452;19.526;2024-03-22T06:24:52;98486.63;;;21.39;54.86
56414;BME280;42318;48.452;19.526;2024-03-22T06:27:53;98499.72;;;21.42;54.80
56414;BME280;42318;48.452;19.526;2024-03-22T06:30:54;98482.00;;;21.40;54.95
56414;BME280;42318;48.452;19.526;2024-03-22T06:33:55;98491.81;;;21.41;55.06
56414;BME280;42318;48.452;19.526;2024-03-22T06:37:02;98484.47;;;21.41;55.00
56414;BME280;42318;48.452;19.526;2024-03-22T06:40:03;98479.81;;;21.37;55.07
56414;BME280;42318;48.452;19.526;2024-03-22T06:43:05;98482.00;;;21.40;54.85
56414;BME280;42318;48.452;19.526;2024-03-22T06:46:06;98484.47;;;21.41;55.12
56414;BME280;42318;48.452;19.526;2024-03-22T06:49:09;98482.28;;;21.43;55.04
56414;BME280;42318;48.452;19.526;2024-03-22T06:52:09;98491.53;;;21.42;55.21
56414;BME280;42318;48.452;19.526;2024-03-22T06:55:10;98483.38;;;21.42;55.15
56414;BME280;42318;48.452;19.526;2024-03-22T06:58:11;98482.56;;;21.47;55.44
56414;BME280;42318;48.452;19.526;2024-03-22T07:01:11;98500.00;;;21.46;56.17
56414;BME280;42318;48.452;19.526;2024-03-22T07:04:12;98507.34;;;21.40;51.63
56414;BME280;42318;48.452;19.526;2024-03-22T07:07:12;98515.53;;;21.40;54.63
56414;BME280;42318;48.452;19.526;2024-03-22T07:10:13;98512.25;;;21.43;55.03
56414;BME280;42318;48.452;19.526;2024-03-22T07:13:14;98504.66;;;21.45;55.30
56414;BME280;42318;48.452;19.526;2024-03-22T07:16:14;98512.25;;;21.43;55.53
56414;BME280;42318;48.452;19.526;2024-03-22T07:19:15;98513.63;;;21.46;55.46
56414;BME280;42318;48.452;19.526;2024-03-22T07:22:16;98507.66;;;21.49;55.21
56414;BME280;42318;48.452;19.526;2024-03-22T07:25:16;98509.28;;;21.45;55.61
56414;BME280;42318;48.452;19.526;2024-03-22T07:28:17;98515.03;;;21.48;55.95
56414;BME280;42318;48.452;19.526;2024-03-22T07:31:17;98505.47;;;21.46;55.89
56414;BME280;42318;48.452;19.526;2024-03-22T07:34:18;98501.38;;;21.48;55.99
56414;BME280;42318;48.452;19.526;2024-03-22T07:37:19;98492.13;;;21.49;55.63
56414;BME280;42318;48.452;19.526;2024-03-22T07:40:21;98498.66;;;21.48;55.57
56414;BME280;42318;48.452;19.526;2024-03-22T07:43:22;98506.56;;;21.50;56.22
56414;BME280;42318;48.452;19.526;2024-03-22T07:46:22;98504.94;;;21.49;56.20
56414;BME280;42318;48.452;19.526;2024-03-22T07:49:23;98498.38;;;21.45;56.68
56414;BME280;42318;48.452;19.526;2024-03-22T07:52:24;98501.38;;;21.48;56.39
56414;BME280;42318;48.452;19.526;2024-03-22T07:55:25;98497.31;;;21.51;56.42
56414;BME280;42318;48.452;19.526;2024-03-22T07:58:26;98501.66;;;21.47;56.09
56414;BME280;42318;48.452;19.526;2024-03-22T08:01:26;98494.84;;;21.49;55.80
56414;BME280;42318;48.452;19.526;2024-03-22T08:04:27;98488.28;;;21.45;56.45
56414;BME280;42318;48.452;19.526;2024-03-22T08:07:28;98486.66;;;21.49;56.40
56414;BME280;42318;48.452;19.526;2024-03-22T08:10:29;98483.13;;;21.49;56.35
56414;BME280;42318;48.452;19.526;2024-03-22T08:13:30;98486.41;;;21.51;56.07
56414;BME280;42318;48.452;19.526;2024-03-22T08:16:31;98486.41;;;21.51;56.69
56414;BME280;42318;48.452;19.526;2024-03-22T08:19:31;98485.31;;;21.47;56.82
56414;BME280;42318;48.452;19.526;2024-03-22T08:22:32;98476.84;;;21.43;56.45
56414;BME280;42318;48.452;19.526;2024-03-22T08:25:33;98481.78;;;21.51;56.22
56414;BME280;42318;48.452;19.526;2024-03-22T08:28:33;98482.03;;;21.50;56.61
56414;BME280;42318;48.452;19.526;2024-03-22T08:31:34;98487.22;;;21.51;56.44
56414;BME280;42318;48.452;19.526;2024-03-22T08:34:34;98474.09;;;21.43;56.34
56414;BME280;42318;48.452;19.526;2024-03-22T08:37:36;98483.13;;;21.49;56.33
56414;BME280;42318;48.452;19.526;2024-03-22T08:40:37;98477.94;;;21.47;56.51
56414;BME280;42318;48.452;19.526;2024-03-22T08:43:38;98463.19;;;21.43;56.20
56414;BME280;42318;48.452;19.526;2024-03-22T08:46:38;98466.75;;;21.44;56.60
56414;BME280;42318;48.452;19.526;2024-03-22T08:49:39;98464.56;;;21.46;56.24
56414;BME280;42318;48.452;19.526;2024-03-22T08:52:41;98460.75;;;21.47;56.44
56414;BME280;42318;48.452;19.526;2024-03-22T08:55:49;98453.41;;;21.47;56.03
56414;BME280;42318;48.452;19.526;2024-03-22T08:58:49;98443.84;;;21.45;56.53
56414;BME280;42318;48.452;19.526;2024-03-22T09:01:51;98453.66;;;21.46;56.29
56414;BME280;42318;48.452;19.526;2024-03-22T09:04:52;98447.13;;;21.47;56.24
56414;BME280;42318;48.452;19.526;2024-03-22T09:07:53;98441.16;;;21.50;56.28
56414;BME280;42318;48.452;19.526;2024-03-22T09:10:56;98436.78;;;21.49;56.19
56414;BME280;42318;48.452;19.526;2024-03-22T09:13:57;98438.69;;;21.48;56.01
56414;BME280;42318;48.452;19.526;2024-03-22T09:16:58;98441.41;;;21.48;56.57
56414;BME280;42318;48.452;19.526;2024-03-22T09:19:59;98432.41;;;21.48;56.39
56414;BME280;42318;48.452;19.526;2024-03-22T09:22:59;98435.97;;;21.48;56.50
56414;BME280;42318;48.452;19.526;2024-03-22T09:26:00;98422.06;;;21.45;56.02
56414;BME280;42318;48.452;19.526;2024-03-22T09:29:01;98421.50;;;21.48;56.02
56414;BME280;42318;48.452;19.526;2024-03-22T09:32:02;98409.50;;;21.44;55.83
56414;BME280;42318;48.452;19.526;2024-03-22T09:35:04;98411.69;;;21.47;55.92
56414;BME280;42318;48.452;19.526;2024-03-22T09:38:04;98406.53;;;21.50;56.16
56414;BME280;42318;48.452;19.526;2024-03-22T09:41:06;98416.34;;;21.51;55.97
56414;BME280;42318;48.452;19.526;2024-03-22T09:44:07;98417.69;;;21.49;55.94
56414;BME280;42318;48.452;19.526;2024-03-22T09:47:09;98416.63;;;21.50;55.77
56414;BME280;42318;48.452;19.526;2024-03-22T09:50:12;98414.72;;;21.50;55.79
56414;BME280;42318;48.452;19.526;2024-03-22T09:53:13;98409.00;;;21.52;55.62
56414;BME280;42318;48.452;19.526;2024-03-22T09:56:20;98424.53;;;21.51;55.79
56414;BME280;42318;48.452;19.526;2024-03-22T09:59:21;98415.53;;;21.51;55.89
56414;BME280;42318;48.452;19.526;2024-03-22T10:02:23;98404.88;;;21.44;55.51
56414;BME280;42318;48.452;19.526;2024-03-22T10:05:24;98426.69;;;21.49;55.29
56414;BME280;42318;48.452;19.526;2024-03-22T10:08:26;98422.34;;;21.48;55.29
56414;BME280;42318;48.452;19.526;2024-03-22T10:11:27;98431.06;;;21.50;55.21
56414;BME280;42318;48.452;19.526;2024-03-22T10:14:28;98427.53;;;21.50;55.70
56414;BME280;42318;48.452;19.526;2024-03-22T10:17:31;98426.97;;;21.48;55.68
56414;BME280;42318;48.452;19.526;2024-03-22T10:20:32;98425.06;;;21.48;55.42
56414;BME280;42318;48.452;19.526;2024-03-22T10:23:33;98425.31;;;21.47;55.08
56414;BME280;42318;48.452;19.526;2024-03-22T10:26:34;98421.78;;;21.46;55.04
56414;BME280;42318;48.452;19.526;2024-03-22T10:29:36;98425.59;;;21.45;55.32
56414;BME280;42318;48.452;19.526;2024-03-22T10:32:37;98411.97;;;21.45;55.47
56414;BME280;42318;48.452;19.526;2024-03-22T10:35:39;98418.78;;;21.48;55.30
56414;BME280;42318;48.452;19.526;2024-03-22T10:38:40;98407.06;;;21.47;55.26
56414;BME280;42318;48.452;19.526;2024-03-22T10:41:41;98406.53;;;21.50;55.15
56414;BME280;42318;48.452;19.526;2024-03-22T10:44:42;98398.91;;;21.57;56.17
56414;BME280;42318;48.452;19.526;2024-03-22T10:47:43;98389.09;;;21.61;56.17
56414;BME280;42318;48.452;19.526;2024-03-22T10:50:47;98385.81;;;21.49;55.94
56414;BME280;42318;48.452;19.526;2024-03-22T10:53:48;98395.91;;;21.59;55.76
56414;BME280;42318;48.452;19.526;2024-03-22T10:56:50;98392.38;;;21.53;56.17
56414;BME280;42318;48.452;19.526;2024-03-22T10:59:54;98385.53;;;21.51;56.25
56414;BME280;42318;48.452;19.526;2024-03-22T11:02:55;98379.81;;;21.52;56.33
56414;BME280;42318;48.452;19.526;2024-03-22T11:05:57;98350.91;;;21.46;56.18
56414;BME280;42318;48.452;19.526;2024-03-22T11:09:00;98370.56;;;21.53;56.16
56414;BME280;42318;48.452;19.526;2024-03-22T11:12:08;98368.91;;;21.52;56.17
56414;BME280;42318;48.452;19.526;2024-03-22T11:15:09;98356.91;;;21.48;56.53
56414;BME280;42318;48.452;19.526;2024-03-22T11:18:11;98364.28;;;21.53;56.38
56414;BME280;42318;48.452;19.526;2024-03-22T11:21:11;98357.47;;;21.55;56.60
56414;BME280;42318;48.452;19.526;2024-03-22T11:24:13;98355.84;;;21.54;56.36
56414;BME280;42318;48.452;19.526;2024-03-22T11:27:14;98354.75;;;21.55;56.60
56414;BME280;42318;48.452;19.526;2024-03-22T11:30:15;98344.13;;;21.54;56.56
56414;BME280;42318;48.452;19.526;2024-03-22T11:33:18;98344.94;;;21.54;56.59
56414;BME280;42318;48.452;19.526;2024-03-22T11:36:18;98340.56;;;21.53;56.48
56414;BME280;42318;48.452;19.526;2024-03-22T11:39:19;98343.84;;;21.55;55.97
56414;BME280;42318;48.452;19.526;2024-03-22T11:42:20;98327.47;;;21.50;56.29
56414;BME280;42318;48.452;19.526;2024-03-22T11:45:23;98323.38;;;21.53;56.06
56414;BME280;42318;48.452;19.526;2024-03-22T11:48:24;98317.66;;;21.54;55.94
56414;BME280;42318;48.452;19.526;2024-03-22T11:51:26;98326.66;;;21.55;55.94
56414;BME280;42318;48.452;19.526;2024-03-22T11:54:26;98314.94;;;21.59;56.36
56414;BME280;42318;48.452;19.526;2024-03-22T11:57:28;98314.69;;;21.61;56.34
56414;BME280;42318;48.452;19.526;2024-03-22T12:00:28;98314.69;;;21.61;56.27
56414;BME280;42318;48.452;19.526;2024-03-22T12:03:29;98312.78;;;21.61;56.31
56414;BME280;42318;48.452;19.526;2024-03-22T12:06:30;98295.59;;;21.61;56.61
56414;BME280;42318;48.452;19.526;2024-03-22T12:09:31;98285.22;;;21.58;56.64
56414;BME280;42318;48.452;19.526;2024-03-22T12:12:31;98293.41;;;21.63;56.08
56414;BME280;42318;48.452;19.526;2024-03-22T12:15:32;98297.50;;;21.60;56.31
56414;BME280;42318;48.452;19.526;2024-03-22T12:18:33;98287.13;;;21.57;55.88
56414;BME280;42318;48.452;19.526;2024-03-22T12:21:34;98281.69;;;21.57;55.88
56414;BME280;42318;48.452;19.526;2024-03-22T12:24:36;98287.41;;;21.56;56.12
56414;BME280;42318;48.452;19.526;2024-03-22T12:27:37;98275.16;;;21.58;55.92
56414;BME280;42318;48.452;19.526;2024-03-22T12:30:38;98272.97;;;21.60;56.27
56414;BME280;42318;48.452;19.526;2024-03-22T12:33:39;98265.88;;;21.59;56.05
56414;BME280;42318;48.452;19.526;2024-03-22T12:36:39;98260.41;;;21.59;56.41
56414;BME280;42318;48.452;19.526;2024-03-22T12:39:40;98254.16;;;21.59;56.38
56414;BME280;42318;48.452;19.526;2024-03-22T12:42:41;98247.06;;;21.58;56.35
56414;BME280;42318;48.452;19.526;2024-03-22T12:45:42;98239.44;;;21.60;56.20
56414;BME280;42318;48.452;19.526;2024-03-22T12:48:43;98228.25;;;21.56;56.52
56414;BME280;42318;48.452;19.526;2024-03-22T12:51:44;98229.06;;;21.62;56.40
56414;BME280;42318;48.452;19.526;2024-03-22T12:54:44;98214.34;;;21.58;56.92
56414;BME280;42318;48.452;19.526;2024-03-22T12:57:46;98224.44;;;21.62;56.73
56414;BME280;42318;48.452;19.526;2024-03-22T13:00:46;98223.34;;;21.58;56.90
56414;BME280;42318;48.452;19.526;2024-03-22T13:03:48;98219.78;;;21.58;56.71
56414;BME280;42318;48.452;19.526;2024-03-22T13:06:48;98213.53;;;21.57;56.48
56414;BME280;42318;48.452;19.526;2024-03-22T13:09:50;98198.25;;;21.56;56.57
56414;BME280;42318;48.452;19.526;2024-03-22T13:12:51;98213.25;;;21.54;56.16
56414;BME280;42318;48.452;19.526;2024-03-22T13:15:51;98202.63;;;21.57;56.04
56414;BME280;42318;48.452;19.526;2024-03-22T13:18:52;98198.00;;;21.58;56.16
56414;BME280;42318;48.452;19.526;2024-03-22T13:21:53;98196.91;;;21.54;56.27
56414;BME280;42318;48.452;19.526;2024-03-22T13:24:53;98198.00;;;21.53;56.00
56414;BME280;42318;48.452;19.526;2024-03-22T13:27:55;98197.72;;;21.54;56.00
56414;BME280;42318;48.452;19.526;2024-03-22T13:31:03;98201.25;;;21.55;56.09
56414;BME280;42318;48.452;19.526;2024-03-22T13:34:06;98191.44;;;21.54;55.67
56414;BME280;42318;48.452;19.526;2024-03-22T13:37:07;98187.91;;;21.53;55.98
56414;BME280;42318;48.452;19.526;2024-03-22T13:40:08;98187.09;;;21.53;55.68
56414;BME280;42318;48.452;19.526;2024-03-22T13:43:09;98174.28;;;21.53;55.31
56414;BME280;42318;48.452;19.526;2024-03-22T13:46:10;98174.81;;;21.50;55.64
56414;BME280;42318;48.452;19.526;2024-03-22T13:49:16;98164.75;;;21.51;55.25
56414;BME280;42318;48.452;19.526;2024-03-22T13:52:18;98165.81;;;21.50;55.47
56414;BME280;42318;48.452;19.526;2024-03-22T13:55:18;98162.28;;;21.49;55.57
56414;BME280;42318;48.452;19.526;2024-03-22T13:58:19;98164.75;;;21.51;55.56
56414;BME280;42318;48.452;19.526;2024-03-22T14:01:20;98149.19;;;21.51;55.64
56414;BME280;42318;48.452;19.526;2024-03-22T14:04:20;98148.38;;;21.51;55.67
56414;BME280;42318;48.452;19.526;2024-03-22T14:07:21;98136.94;;;21.44;55.76
56414;BME280;42318;48.452;19.526;2024-03-22T14:10:22;98144.56;;;21.52;55.72
56414;BME280;42318;48.452;19.526;2024-03-22T14:13:23;98147.28;;;21.52;55.29
56414;BME280;42318;48.452;19.526;2024-03-22T14:16:23;98149.75;;;21.53;55.66
56414;BME280;42318;48.452;19.526;2024-03-22T14:19:24;98148.09;;;21.52;56.06
56414;BME280;42318;48.452;19.526;2024-03-22T14:22:25;98147.56;;;21.55;55.65
56414;BME280;42318;48.452;19.526;2024-03-22T14:25:26;98133.94;;;21.50;55.45
56414;BME280;42318;48.452;19.526;2024-03-22T14:28:27;98141.84;;;21.52;55.60
56414;BME280;42318;48.452;19.526;2024-03-22T14:31:28;98148.09;;;21.52;55.50
56414;BME280;42318;48.452;19.526;2024-03-22T14:34:29;98144.84;;;21.55;55.86
56414;BME280;42318;48.452;19.526;2024-03-22T14:37:30;98141.56;;;21.53;55.63
56414;BME280;42318;48.452;19.526;2024-03-22T14:40:31;98138.84;;;21.53;55.87
56414;BME280;42318;48.452;19.526;2024-03-22T14:43:36;98147.00;;;21.53;55.63
56414;BME280;42318;48.452;19.526;2024-03-22T14:46:37;98131.47;;;21.49;55.95
56414;BME280;42318;48.452;19.526;2024-03-22T14:49:38;98143.75;;;21.51;55.75
56414;BME280;42318;48.452;19.526;2024-03-22T14:52:39;98141.56;;;21.53;56.13
56414;BME280;42318;48.452;19.526;2024-03-22T14:55:40;98145.38;;;21.52;56.00
56414;BME280;42318;48.452;19.526;2024-03-22T14:58:41;98142.09;;;21.55;56.17
56414;BME280;42318;48.452;19.526;2024-03-22T15:01:43;98143.75;;;21.51;56.20
56414;BME280;42318;48.452;19.526;2024-03-22T15:04:43;98150.81;;;21.57;55.93
56414;BME280;42318;48.452;19.526;2024-03-22T15:07:45;98145.66;;;21.56;55.98
56414;BME280;42318;48.452;19.526;2024-03-22T15:10:49;98145.66;;;21.56;56.30
56414;BME280;42318;48.452;19.526;2024-03-22T15:13:49;98148.09;;;21.57;56.20
56414;BME280;42318;48.452;19.526;2024-03-22T15:16:50;98142.38;;;21.59;56.20
56414;BME280;42318;48.452;19.526;2024-03-22T15:19:51;98143.19;;;21.54;56.39
56414;BME280;42318;48.452;19.526;2024-03-22T15:22:52;98153.56;;;21.57;56.22
56414;BME280;42318;48.452;19.526;2024-03-22T15:25:52;98145.66;;;21.56;56.31
56414;BME280;42318;48.452;19.526;2024-03-22T15:28:53;98144.84;;;21.50;56.15
56414;BME280;42318;48.452;19.526;2024-03-22T15:31:53;98141.03;;;21.46;56.35
56414;BME280;42318;48.452;19.526;2024-03-22T15:34:54;98149.75;;;21.53;56.48
56414;BME280;42318;48.452;19.526;2024-03-22T15:37:55;98148.94;;;21.53;56.49
56414;BME280;42318;48.452;19.526;2024-03-22T15:40:55;98127.66;;;21.45;56.08
56414;BME280;42318;48.452;19.526;2024-03-22T15:43:56;98134.22;;;21.44;56.33
56414;BME280;42318;48.452;19.526;2024-03-22T15:46:57;98127.66;;;21.45;55.92